Time;durP1;ratioP1;P1;durP2;ratioP2;P2;SDS_P1;SDS_P2;PMS_P1;PMS_P2;Temp;Humidity;BMP_temperature;BMP_pressure;BME280_temperature;BME280_humidity;BME280_pressure;Samples;Min_cycle;Max_cycle;Signal;HPM_P1;HPM_P2
2023/07/23 00:01:53;;;;;;;10.00;7.07;;;;;;;16.18;100.00;100774.06;5304176;27;20106;-65
2023/07/23 00:04:24;;;;;;;9.23;6.40;;;;;;;16.14;100.00;100768.16;5307053;28;20477;-65
2023/07/23 00:06:56;;;;;;;10.55;7.05;;;;;;;16.25;100.00;100769.75;5305786;28;20023;-65
2023/07/23 00:09:27;;;;;;;9.93;6.97;;;;;;;16.18;100.00;100768.69;5307697;28;20087;-66
2023/07/23 00:11:59;;;;;;;9.55;7.15;;;;;;;16.16;100.00;100759.94;5300216;28;20154;-65
2023/07/23 00:14:31;;;;;;;10.10;6.97;;;;;;;16.20;100.00;100754.09;5296142;28;20106;-66
2023/07/23 00:17:02;;;;;;;10.25;6.03;;;;;;;16.24;100.00;100755.47;5304236;28;20655;-66
2023/07/23 00:19:33;;;;;;;9.18;6.60;;;;;;;16.14;100.00;100754.69;5303899;28;20027;-66
2023/07/23 00:22:05;;;;;;;7.45;5.60;;;;;;;16.13;100.00;100753.03;5306745;28;20016;-65
2023/07/23 00:24:37;;;;;;;9.93;6.25;;;;;;;16.19;100.00;100735.41;5299300;28;20159;-66
2023/07/23 00:27:10;;;;;;;10.60;6.57;;;;;;;16.10;100.00;100737.16;5304555;28;20031;-66
2023/07/23 00:29:41;;;;;;;11.45;6.47;;;;;;;16.21;100.00;100736.91;5303160;28;20110;-66
2023/07/23 00:32:13;;;;;;;10.35;6.75;;;;;;;16.27;100.00;100730.06;5302415;28;20517;-66
2023/07/23 00:34:44;;;;;;;11.02;6.97;;;;;;;16.26;100.00;100729.22;5301156;28;20371;-66
2023/07/23 00:37:16;;;;;;;8.85;6.93;;;;;;;16.29;100.00;100719.16;5284208;28;20046;-65
2023/07/23 00:39:47;;;;;;;9.80;7.25;;;;;;;16.19;100.00;100717.38;5304477;28;20045;-66
2023/07/23 00:42:18;;;;;;;10.90;6.45;;;;;;;16.19;100.00;100709.31;5304446;28;20031;-65
2023/07/23 00:44:50;;;;;;;10.07;6.10;;;;;;;16.20;100.00;100700.25;5302267;28;20250;-65
2023/07/23 00:47:21;;;;;;;10.43;6.85;;;;;;;16.32;100.00;100700.84;5302449;28;20463;-66
2023/07/23 00:49:53;;;;;;;8.85;6.68;;;;;;;16.27;100.00;100695.91;5300556;28;20031;-66
2023/07/23 00:52:25;;;;;;;7.07;6.00;;;;;;;16.27;100.00;100692.38;5298729;28;20370;-65
2023/07/23 00:54:56;;;;;;;8.43;6.28;;;;;;;16.24;100.00;100685.47;5297570;28;20380;-66
2023/07/23 00:57:28;;;;;;;11.77;5.90;;;;;;;16.16;100.00;100680.00;5293880;28;20254;-66
2023/07/23 01:00:00;;;;;;;9.45;6.22;;;;;;;16.26;100.00;100678.06;5278927;28;21173;-67
2023/07/23 01:02:32;;;;;;;9.25;6.45;;;;;;;16.22;100.00;100676.72;5296210;28;20091;-66
2023/07/23 01:05:05;;;;;;;8.23;6.10;;;;;;;16.18;100.00;100661.84;5295089;28;20024;-66
2023/07/23 01:07:37;;;;;;;9.77;5.80;;;;;;;16.21;100.00;100655.31;5300361;28;20047;-66
2023/07/23 01:10:09;;;;;;;7.05;5.10;;;;;;;16.11;100.00;100652.75;5301051;28;22379;-66
2023/07/23 01:12:41;;;;;;;8.85;5.85;;;;;;;16.14;100.00;100649.72;5300952;28;20032;-66
2023/07/23 01:15:13;;;;;;;9.15;6.03;;;;;;;16.06;100.00;100644.28;5299717;28;20065;-66
2023/07/23 01:17:45;;;;;;;8.13;6.18;;;;;;;16.07;100.00;100646.81;5300096;28;20516;-65
2023/07/23 01:20:17;;;;;;;8.38;5.70;;;;;;;16.20;100.00;100638.34;5300627;28;20040;-66
2023/07/23 01:22:48;;;;;;;8.07;5.82;;;;;;;16.23;100.00;100635.31;5305902;28;20204;-66
2023/07/23 01:25:20;;;;;;;8.48;6.28;;;;;;;16.26;100.00;100631.44;5301486;28;20072;-66
2023/07/23 01:27:51;;;;;;;7.88;6.10;;;;;;;16.21;100.00;100634.63;5301805;28;20531;-66
2023/07/23 01:30:22;;;;;;;6.93;4.85;;;;;;;16.13;100.00;100620.25;5305965;28;20024;-66
2023/07/23 01:32:54;;;;;;;6.93;5.32;;;;;;;16.13;100.00;100620.25;5305124;28;20558;-66
2023/07/23 01:35:26;;;;;;;7.60;5.53;;;;;;;16.18;100.00;100615.25;5307248;28;20023;-66
2023/07/23 01:37:58;;;;;;;9.27;5.50;;;;;;;16.17;100.00;100605.50;5303240;28;20042;-66
2023/07/23 01:40:30;;;;;;;9.27;6.00;;;;;;;16.16;100.00;100607.34;5306305;27;20598;-66
2023/07/23 01:43:01;;;;;;;8.20;5.68;;;;;;;16.18;100.00;100607.19;5309647;28;20087;-65
2023/07/23 01:45:33;;;;;;;7.80;5.80;;;;;;;16.18;100.00;100599.94;5307281;27;20085;-65
2023/07/23 01:48:04;;;;;;;9.73;6.47;;;;;;;16.16;100.00;100603.81;5307434;28;20036;-66
2023/07/23 01:50:36;;;;;;;11.45;5.85;;;;;;;16.15;100.00;100594.91;5306429;28;20707;-66
2023/07/23 01:53:08;;;;;;;7.50;5.97;;;;;;;16.17;100.00;100598.28;5312032;28;20093;-66
2023/07/23 01:55:39;;;;;;;10.90;6.07;;;;;;;16.10;100.00;100585.59;5302332;28;20031;-65
2023/07/23 01:58:10;;;;;;;10.48;6.03;;;;;;;16.09;100.00;100584.78;5306718;28;20177;-66
2023/07/23 02:00:42;;;;;;;8.18;5.95;;;;;;;16.05;100.00;100580.69;5307013;28;20554;-66
2023/07/23 02:03:13;;;;;;;8.27;5.85;;;;;;;16.11;100.00;100574.69;5307959;28;20043;-65
2023/07/23 02:05:58;;;;;;;9.85;6.57;;;;;;;16.10;100.00;100574.84;5308982;28;20024;-65
2023/07/23 02:08:30;;;;;;;9.10;6.30;;;;;;;16.23;100.00;100569.88;5303078;27;20720;-66
2023/07/23 02:11:03;;;;;;;9.20;5.32;;;;;;;16.19;100.00;100561.25;5306527;28;20071;-66
2023/07/23 02:13:34;;;;;;;9.82;6.05;;;;;;;16.09;100.00;100557.84;5305763;28;20054;-66
2023/07/23 02:16:05;;;;;;;10.50;5.90;;;;;;;16.18;100.00;100554.19;5305577;28;20047;-66
2023/07/23 02:18:37;;;;;;;9.35;6.03;;;;;;;16.16;100.00;100553.50;5309650;28;20024;-66
2023/07/23 02:21:08;;;;;;;8.52;5.47;;;;;;;16.10;100.00;100543.38;5311065;28;20066;-66
2023/07/23 02:23:39;;;;;;;9.90;6.05;;;;;;;16.18;100.00;100539.88;5314854;28;20027;-66
2023/07/23 02:26:11;;;;;;;9.10;5.55;;;;;;;16.16;100.00;100534.66;5312782;28;20559;-66
2023/07/23 02:28:43;;;;;;;7.93;5.70;;;;;;;16.22;100.00;100538.56;5312869;28;20024;-66
2023/07/23 02:31:15;;;;;;;9.75;5.38;;;;;;;16.23;100.00;100535.69;5307687;28;20033;-66
2023/07/23 02:33:47;;;;;;;8.50;5.55;;;;;;;16.14;100.00;100528.59;5305233;27;20096;-66
2023/07/23 02:36:18;;;;;;;7.90;5.05;;;;;;;16.26;100.00;100523.75;5303577;27;20035;-66
2023/07/23 02:38:49;;;;;;;6.72;5.00;;;;;;;16.22;100.00;100527.78;5299939;28;20478;-66
2023/07/23 02:41:21;;;;;;;8.57;5.30;;;;;;;16.13;100.00;100516.16;5301012;27;20740;-66
2023/07/23 02:43:53;;;;;;;8.80;5.60;;;;;;;16.16;100.00;100523.88;5301461;28;20419;-66
2023/07/23 02:46:24;;;;;;;8.70;4.93;;;;;;;16.22;100.00;100514.31;5299716;28;20024;-66
2023/07/23 02:48:56;;;;;;;8.40;5.13;;;;;;;16.20;100.00;100521.72;5301917;28;20120;-66
2023/07/23 02:51:27;;;;;;;8.52;4.80;;;;;;;16.18;100.00;100521.03;5302452;28;20767;-66
2023/07/23 02:53:58;;;;;;;8.82;4.97;;;;;;;16.15;100.00;100506.06;5298223;28;20088;-66
2023/07/23 02:56:30;;;;;;;7.18;4.50;;;;;;;16.17;100.00;100508.59;5297211;28;20031;-66
2023/07/23 02:59:03;;;;;;;7.25;4.70;;;;;;;16.23;100.00;100508.78;5302083;28;20564;-66
2023/07/23 03:01:36;;;;;;;7.05;4.28;;;;;;;16.20;100.00;100506.44;5302992;27;20359;-66
2023/07/23 03:04:07;;;;;;;7.27;4.03;;;;;;;16.17;100.00;100495.97;5300629;27;20477;-66
2023/07/23 03:06:39;;;;;;;8.30;4.55;;;;;;;16.19;100.00;100507.44;5302692;27;20119;-66
2023/07/23 03:09:10;;;;;;;6.40;4.00;;;;;;;16.22;100.00;100503.56;5302107;28;21557;-66
2023/07/23 03:11:42;;;;;;;7.75;4.50;;;;;;;16.18;100.00;100502.19;5303234;28;20385;-66
2023/07/23 03:14:13;;;;;;;8.05;4.30;;;;;;;16.18;100.00;100497.66;5302596;28;20610;-66
2023/07/23 03:16:44;;;;;;;7.28;4.43;;;;;;;16.14;100.00;100498.16;5301740;28;20509;-66
2023/07/23 03:19:16;;;;;;;8.45;4.55;;;;;;;16.22;100.00;100499.03;5301244;27;20454;-67
2023/07/23 03:21:47;;;;;;;7.57;4.80;;;;;;;16.16;100.00;100493.44;5301326;27;20028;-66
2023/07/23 03:24:19;;;;;;;6.78;4.10;;;;;;;16.17;100.00;100487.91;5299875;28;20027;-66
2023/07/23 03:26:50;;;;;;;8.45;4.40;;;;;;;16.22;100.00;100490.09;5302091;28;20393;-66
2023/07/23 03:29:21;;;;;;;8.63;3.95;;;;;;;16.22;100.00;100492.78;5302158;28;20068;-66
2023/07/23 03:31:53;;;;;;;6.82;4.57;;;;;;;16.17;100.00;100493.28;5299739;27;20382;-66
2023/07/23 03:34:24;;;;;;;8.18;4.72;;;;;;;16.13;100.00;100494.63;5302314;27;20031;-65
2023/07/23 03:36:55;;;;;;;9.00;4.45;;;;;;;16.16;100.00;100482.69;5302809;28;20035;-66
2023/07/23 03:39:27;;;;;;;6.07;3.90;;;;;;;16.26;100.00;100486.94;5301736;28;20035;-66
2023/07/23 03:41:58;;;;;;;5.60;3.70;;;;;;;16.18;100.00;100486.06;5299803;28;20030;-66
2023/07/23 03:44:30;;;;;;;6.55;3.67;;;;;;;16.18;100.00;100484.19;5302462;28;20077;-66
2023/07/23 03:47:08;;;;;;;6.63;3.83;;;;;;;16.19;100.00;100480.50;5303713;28;20418;-66
2023/07/23 03:49:41;;;;;;;7.22;4.22;;;;;;;16.25;100.00;100481.72;5301744;28;20564;-66
2023/07/23 03:52:12;;;;;;;8.65;3.90;;;;;;;16.27;100.00;100480.53;5303781;28;20434;-65
2023/07/23 03:54:44;;;;;;;7.63;4.05;;;;;;;16.18;100.00;100484.19;5297694;28;20219;-66
2023/07/23 03:57:15;;;;;;;7.15;4.38;;;;;;;16.22;100.00;100484.72;5302762;27;20514;-66
2023/07/23 03:59:47;;;;;;;6.57;3.97;;;;;;;16.16;100.00;100482.69;5299328;28;20125;-66
2023/07/23 04:02:18;;;;;;;7.00;3.83;;;;;;;16.25;100.00;100484.41;5295047;28;20359;-66
2023/07/23 04:04:50;;;;;;;7.25;4.18;;;;;;;16.23;100.00;100484.56;5297672;27;20179;-66
2023/07/23 04:07:21;;;;;;;7.68;4.03;;;;;;;16.36;100.00;100496.72;5306382;28;20134;-66
2023/07/23 04:09:53;;;;;;;6.95;3.70;;;;;;;16.27;100.00;100487.78;5298106;27;20024;-66
2023/07/23 04:12:25;;;;;;;7.65;4.10;;;;;;;16.21;100.00;100493.81;5299524;28;20401;-66
2023/07/23 04:14:56;;;;;;;5.47;3.60;;;;;;;16.27;100.00;100490.47;5298664;28;20024;-66
2023/07/23 04:17:28;;;;;;;6.90;3.65;;;;;;;16.30;100.00;100481.19;5302176;28;20491;-66
2023/07/23 04:19:59;;;;;;;7.35;4.10;;;;;;;16.22;100.00;100490.97;5300969;28;20047;-66
2023/07/23 04:22:30;;;;;;;6.80;4.05;;;;;;;16.15;100.00;100489.09;5301370;28;20465;-66
2023/07/23 04:25:02;;;;;;;9.77;4.13;;;;;;;16.20;100.00;100492.97;5297495;28;20038;-66
2023/07/23 04:27:33;;;;;;;6.28;3.70;;;;;;;16.21;100.00;100494.66;5297891;28;20020;-66
2023/07/23 04:30:05;;;;;;;6.53;4.00;;;;;;;16.26;100.00;100492.31;5299641;28;20104;-66
2023/07/23 04:32:37;;;;;;;6.80;3.78;;;;;;;16.20;100.00;100487.59;5299145;28;20533;-66
2023/07/23 04:35:08;;;;;;;6.13;3.80;;;;;;;16.23;100.00;100489.94;5301643;28;20062;-66
2023/07/23 04:37:39;;;;;;;8.02;4.45;;;;;;;16.34;100.00;100496.03;5297439;28;20034;-67
2023/07/23 04:40:11;;;;;;;7.28;4.22;;;;;;;16.26;100.00;100492.31;5299106;28;20034;-67
2023/07/23 04:42:43;;;;;;;6.20;3.33;;;;;;;16.26;100.00;100486.06;5300563;28;21616;-66
2023/07/23 04:45:14;;;;;;;7.40;3.80;;;;;;;16.32;100.00;100488.13;5300157;28;20516;-66
2023/07/23 04:47:45;;;;;;;6.20;3.55;;;;;;;16.31;100.00;100480.22;5304083;28;21247;-66
2023/07/23 04:50:17;;;;;;;6.97;3.95;;;;;;;16.32;100.00;100477.38;5301361;28;20497;-66
2023/07/23 04:52:48;;;;;;;7.57;3.63;;;;;;;16.42;100.00;100474.53;5297968;28;20631;-66
2023/07/23 04:55:19;;;;;;;10.20;3.75;;;;;;;16.45;100.00;100479.56;5300211;28;22116;-66
2023/07/23 04:57:51;;;;;;;5.70;3.75;;;;;;;16.35;100.00;100482.41;5299826;28;20469;-66
2023/07/23 05:00:23;;;;;;;6.80;3.10;;;;;;;16.40;100.00;100471.16;5295638;28;20478;-66
2023/07/23 05:02:54;;;;;;;9.68;4.40;;;;;;;16.35;100.00;100481.56;5299750;28;20065;-66
2023/07/23 05:05:25;;;;;;;5.95;3.40;;;;;;;16.40;100.00;100482.75;5299033;28;20020;-66
2023/07/23 05:07:57;;;;;;;6.45;4.07;;;;;;;16.37;100.00;100485.78;5299154;28;20078;-66
2023/07/23 05:10:28;;;;;;;5.78;3.78;;;;;;;16.46;100.00;100487.47;5300099;28;20030;-66
2023/07/23 05:13:00;;;;;;;7.13;4.30;;;;;;;16.55;100.00;100482.97;5304776;28;20035;-66
2023/07/23 05:15:31;;;;;;;8.55;4.10;;;;;;;16.46;100.00;100484.78;5307976;28;20474;-66
2023/07/23 05:18:03;;;;;;;6.93;3.78;;;;;;;16.46;100.00;100490.19;5309166;28;20371;-66
2023/07/23 05:20:34;;;;;;;5.60;3.70;;;;;;;16.45;100.00;100493.88;5307947;28;20625;-66
2023/07/23 05:23:06;;;;;;;6.15;3.50;;;;;;;16.45;100.00;100488.50;5308332;28;20097;-66
2023/07/23 05:25:37;;;;;;;7.50;3.30;;;;;;;16.41;100.00;100486.28;5306522;27;20055;-66
2023/07/23 05:28:08;;;;;;;6.15;4.10;;;;;;;16.43;100.00;100490.53;5303535;27;20078;-66
2023/07/23 05:30:40;;;;;;;8.75;3.97;;;;;;;16.52;100.00;100490.53;5305165;28;20031;-66
2023/07/23 05:33:11;;;;;;;6.45;3.17;;;;;;;16.46;100.00;100483.94;5304093;27;20058;-66
2023/07/23 05:35:43;;;;;;;6.30;4.18;;;;;;;16.39;100.00;100485.59;5309909;27;20053;-66
2023/07/23 05:38:14;;;;;;;6.65;4.22;;;;;;;16.39;100.00;100482.91;5310858;28;20393;-66
2023/07/23 05:40:56;;;;;;;6.47;3.85;;;;;;;16.40;100.00;100482.75;5308950;27;20035;-66
2023/07/23 05:43:29;;;;;;;7.32;3.95;;;;;;;16.40;100.00;100481.94;5308830;28;20027;-66
2023/07/23 05:46:01;;;;;;;6.72;3.35;;;;;;;16.35;100.00;100481.56;5307742;28;20114;-66
2023/07/23 05:48:32;;;;;;;6.05;3.95;;;;;;;16.34;100.00;100483.41;5307883;28;20082;-66
2023/07/23 05:51:04;;;;;;;7.57;4.10;;;;;;;16.52;100.00;100482.44;5305049;28;20638;-66
2023/07/23 05:53:35;;;;;;;6.57;3.70;;;;;;;16.52;100.00;100479.75;5309550;28;20046;-66
2023/07/23 05:56:06;;;;;;;7.35;4.22;;;;;;;16.64;100.00;100478.41;5308121;27;20031;-66
2023/07/23 05:58:38;;;;;;;7.47;3.65;;;;;;;16.59;100.00;100473.53;5303954;28;20035;-66
2023/07/23 06:01:09;;;;;;;7.00;3.47;;;;;;;16.57;100.00;100472.88;5301415;28;20027;-66
2023/07/23 06:03:41;;;;;;;5.70;3.22;;;;;;;16.59;100.00;100470.03;5307529;28;20154;-66
2023/07/23 06:06:12;;;;;;;9.10;3.97;;;;;;;16.64;100.00;100470.34;5309728;28;20019;-66
2023/07/23 06:08:43;;;;;;;7.47;4.03;;;;;;;16.72;100.00;100474.91;5310500;27;20055;-66
2023/07/23 06:11:15;;;;;;;7.97;3.83;;;;;;;16.77;100.00;100481.47;5309054;27;20055;-66
2023/07/23 06:13:46;;;;;;;5.63;3.33;;;;;;;16.70;100.00;100499.31;5308637;28;20521;-65
2023/07/23 06:16:18;;;;;;;6.57;4.05;;;;;;;16.59;100.00;100487.00;5307589;28;20415;-66
2023/07/23 06:18:49;;;;;;;6.78;3.35;;;;;;;16.59;100.00;100489.72;5306078;27;20024;-66
2023/07/23 06:21:21;;;;;;;7.43;3.70;;;;;;;16.52;100.00;100483.28;5309156;27;20481;-66
2023/07/23 06:23:52;;;;;;;6.07;3.75;;;;;;;16.51;100.00;100486.13;5307146;27;20030;-66
2023/07/23 06:26:24;;;;;;;6.90;3.75;;;;;;;16.42;100.00;100499.59;5304310;28;20315;-66
2023/07/23 06:28:55;;;;;;;6.68;3.67;;;;;;;16.49;100.00;100490.84;5310119;27;20027;-66
2023/07/23 06:31:27;;;;;;;8.23;3.92;;;;;;;16.46;100.00;100492.88;5310440;28;20069;-67
2023/07/23 06:33:58;;;;;;;5.30;3.58;;;;;;;16.56;100.00;100502.66;5306969;27;20027;-66
2023/07/23 06:36:29;;;;;;;6.35;3.75;;;;;;;16.58;100.00;100497.94;5320439;27;20390;-66
2023/07/23 06:39:01;;;;;;;6.90;3.65;;;;;;;16.48;100.00;100495.41;5304487;28;20028;-66
2023/07/23 06:41:32;;;;;;;6.00;3.67;;;;;;;16.59;100.00;100505.88;5303595;28;20024;-66
2023/07/23 06:44:04;;;;;;;5.32;3.60;;;;;;;16.58;100.00;100504.16;5312266;28;20036;-66
2023/07/23 06:46:35;;;;;;;6.80;4.03;;;;;;;16.61;100.00;100519.19;5313091;27;20031;-66
2023/07/23 06:49:07;;;;;;;7.75;3.72;;;;;;;16.56;100.00;100525.03;5315470;27;20080;-66
2023/07/23 06:51:39;;;;;;;6.20;3.60;;;;;;;16.57;100.00;100521.34;5312509;28;20059;-66
2023/07/23 06:54:10;;;;;;;6.82;3.83;;;;;;;16.50;100.00;100525.69;5304495;28;20389;-66
2023/07/23 06:56:41;;;;;;;5.82;4.03;;;;;;;16.48;100.00;100521.50;5309996;27;20284;-66
2023/07/23 06:59:13;;;;;;;7.15;4.45;;;;;;;16.48;100.00;100521.50;5310454;28;20024;-66
2023/07/23 07:01:44;;;;;;;6.57;3.95;;;;;;;16.54;100.00;100524.38;5310224;28;20027;-66
2023/07/23 07:04:15;;;;;;;6.68;4.32;;;;;;;16.51;100.00;100519.31;5310128;28;20047;-66
2023/07/23 07:06:47;;;;;;;7.22;4.35;;;;;;;16.48;100.00;100527.72;5311035;27;20118;-66
2023/07/23 07:09:18;;;;;;;7.00;4.13;;;;;;;16.51;100.00;100524.72;5311671;27;20052;-65
2023/07/23 07:11:50;;;;;;;8.02;4.25;;;;;;;16.42;100.00;100521.13;5310071;28;20095;-66
2023/07/23 07:14:22;;;;;;;8.32;5.05;;;;;;;16.53;100.00;100530.78;5307367;28;21114;-66
2023/07/23 07:16:53;;;;;;;7.57;4.95;;;;;;;16.53;100.00;100522.69;5306227;27;20034;-65
2023/07/23 07:19:25;;;;;;;7.93;5.07;;;;;;;16.51;100.00;100527.41;5304000;28;20738;-65
2023/07/23 07:21:56;;;;;;;8.48;5.07;;;;;;;16.48;100.00;100522.34;5306917;27;20027;-65
2023/07/23 07:24:28;;;;;;;10.30;5.45;;;;;;;16.53;100.00;100522.69;5311513;28;20138;-65
2023/07/23 07:27:00;;;;;;;7.80;4.93;;;;;;;16.51;100.00;100523.84;5311903;28;20455;-65
2023/07/23 07:29:31;;;;;;;8.23;4.90;;;;;;;16.48;100.00;100526.88;5303521;28;20534;-65
2023/07/23 07:32:03;;;;;;;7.53;4.85;;;;;;;16.49;100.00;100529.38;5315488;27;20036;-65
2023/07/23 07:34:34;;;;;;;8.13;4.80;;;;;;;16.52;100.00;100529.06;5311391;27;20031;-65
2023/07/23 07:37:06;;;;;;;9.07;4.82;;;;;;;16.58;100.00;100531.09;5307154;27;20080;-65
2023/07/23 07:39:37;;;;;;;8.30;5.35;;;;;;;16.49;100.00;100529.38;5309480;28;20031;-65
2023/07/23 07:42:09;;;;;;;8.48;5.18;;;;;;;16.57;100.00;100526.75;5307572;28;20107;-65
2023/07/23 07:44:40;;;;;;;8.93;5.38;;;;;;;16.62;100.00;100529.75;5302553;28;20506;-65
2023/07/23 07:47:12;;;;;;;10.13;4.82;;;;;;;16.67;100.00;100532.81;5304918;28;20031;-65
2023/07/23 07:49:44;;;;;;;8.68;5.55;;;;;;;16.70;100.00;100531.63;5309725;28;20413;-66
2023/07/23 07:52:15;;;;;;;8.27;5.57;;;;;;;16.71;100.00;100519.88;5307015;28;20039;-65
2023/07/23 07:54:47;;;;;;;7.55;5.15;;;;;;;16.72;100.00;100520.69;5309418;28;20693;-65
2023/07/23 07:57:18;;;;;;;8.50;4.97;;;;;;;16.84;100.00;100527.50;5307278;28;20028;-65
2023/07/23 07:59:50;;;;;;;7.70;5.32;;;;;;;16.70;100.00;100523.53;5304077;27;20068;-65
2023/07/23 08:02:22;;;;;;;7.43;5.00;;;;;;;16.74;100.00;100527.63;5301084;27;20271;-66
2023/07/23 08:04:53;;;;;;;11.43;5.47;;;;;;;16.80;100.00;100528.81;5305460;27;20159;-66
2023/07/23 08:07:25;;;;;;;10.50;5.80;;;;;;;16.94;100.00;100524.66;5303432;27;20039;-66
2023/07/23 08:09:59;;;;;;;8.27;6.00;;;;;;;16.94;100.00;100520.09;5305203;27;20027;-66
2023/07/23 08:12:30;;;;;;;8.85;5.15;;;;;;;17.01;100.00;100518.44;5307057;27;20470;-65
2023/07/23 08:15:02;;;;;;;8.52;5.00;;;;;;;17.02;100.00;100524.66;5303582;28;20803;-66
2023/07/23 08:17:34;;;;;;;8.00;5.20;;;;;;;17.07;100.00;100525.00;5311234;28;21219;-66
2023/07/23 08:20:06;;;;;;;7.32;4.50;;;;;;;17.13;100.00;100526.19;5301759;28;20173;-66
2023/07/23 08:22:38;;;;;;;6.80;4.55;;;;;;;17.10;100.00;100526.50;5303550;28;20027;-66
2023/07/23 08:25:10;;;;;;;7.25;4.53;;;;;;;17.18;100.00;100523.81;5303961;28;20084;-66
2023/07/23 08:27:43;;;;;;;6.95;4.70;;;;;;;17.18;100.00;100515.72;5309078;28;20019;-66
2023/07/23 08:30:16;;;;;;;7.32;4.72;;;;;;;17.36;100.00;100519.09;5304343;27;20028;-66
2023/07/23 08:32:50;;;;;;;6.05;3.95;;;;;;;17.26;100.00;100515.72;5302894;28;20020;-66
2023/07/23 08:35:24;;;;;;;6.38;4.00;;;;;;;17.43;100.00;100521.94;5302488;28;20028;-66
2023/07/23 08:37:55;;;;;;;7.18;4.00;;;;;;;17.50;100.00;100522.13;5305120;28;20035;-66
2023/07/23 08:40:29;;;;;;;6.10;3.58;;;;;;;17.50;100.00;100512.16;5308058;28;20382;-66
2023/07/23 08:43:29;;;;;;;5.95;3.33;;;;;;;17.59;100.00;100513.00;5306117;28;20020;-66
2023/07/23 08:46:21;;;;;;;5.53;3.30;;;;;;;17.70;100.00;100517.19;5266022;28;20123;-66
2023/07/23 08:48:56;;;;;;;4.82;3.00;;;;;;;17.60;100.00;100518.22;5307432;28;20023;-66
2023/07/23 08:51:43;;;;;;;5.22;3.00;;;;;;;17.73;100.00;100523.06;5300684;28;20984;-66
2023/07/23 08:54:15;;;;;;;4.30;2.67;;;;;;;17.57;100.00;100515.88;5304238;28;20027;-66
2023/07/23 08:56:47;;;;;;;4.93;3.15;;;;;;;17.61;100.00;100511.81;5308920;28;20035;-66
2023/07/23 08:59:19;;;;;;;4.47;2.85;;;;;;;17.59;100.00;100513.84;5310921;27;20053;-66
2023/07/23 09:01:50;;;;;;;5.18;3.13;;;;;;;17.71;100.00;100513.47;5304974;27;20410;-66
2023/07/23 09:04:22;;;;;;;4.13;2.15;;;;;;;17.75;100.00;100520.22;5312662;27;20515;-66
2023/07/23 09:06:57;;;;;;;4.20;2.58;;;;;;;17.77;100.00;100527.09;5310791;28;21197;-66
2023/07/23 09:09:28;;;;;;;4.55;2.33;;;;;;;17.74;100.00;100530.16;5303428;28;20044;-66
2023/07/23 09:12:03;;;;;;;4.15;2.70;;;;;;;17.78;100.00;100522.56;5310321;28;20027;-67
2023/07/23 09:14:41;;;;;;;3.95;2.50;;;;;;;17.79;100.00;100526.94;5315343;28;20114;-66
2023/07/23 09:17:20;;;;;;;4.45;2.67;;;;;;;17.81;100.00;100531.16;5309323;28;20123;-66
2023/07/23 09:19:53;;;;;;;4.80;2.90;;;;;;;17.75;100.00;100525.59;5308859;28;20058;-66
2023/07/23 09:22:24;;;;;;;3.95;2.47;;;;;;;17.75;100.00;100531.84;5304821;27;20042;-66
2023/07/23 09:25:00;;;;;;;3.35;1.92;;;;;;;17.70;100.00;100534.22;5309202;27;20098;-66
2023/07/23 09:27:39;;;;;;;4.55;2.55;;;;;;;17.63;100.00;100534.06;5305630;27;20042;-65
2023/07/23 09:30:21;;;;;;;4.03;2.30;;;;;;;17.68;100.00;100535.41;5309576;27;20107;-65
2023/07/23 09:33:00;;;;;;;4.65;2.63;;;;;;;17.71;100.00;100544.00;5307793;28;20114;-65
2023/07/23 09:35:31;;;;;;;4.35;2.70;;;;;;;17.68;100.00;100533.56;5309840;27;20094;-65
2023/07/23 09:38:03;;;;;;;4.78;2.97;;;;;;;17.62;100.00;100536.91;5315674;27;20458;-65
2023/07/23 09:40:35;;;;;;;4.05;2.40;;;;;;;17.65;100.00;100536.59;5308346;28;20427;-65
2023/07/23 09:43:08;;;;;;;5.43;2.70;;;;;;;17.66;100.00;100540.13;5311879;28;20981;-65
2023/07/23 09:45:41;;;;;;;4.47;2.97;;;;;;;17.56;100.00;100538.44;5310232;28;20587;-65
2023/07/23 09:48:16;;;;;;;4.40;2.80;;;;;;;17.62;100.00;100534.22;5312411;28;20027;-65
2023/07/23 09:50:56;;;;;;;5.07;3.17;;;;;;;17.64;100.00;100549.25;5307910;28;20458;-65
2023/07/23 09:53:29;;;;;;;4.88;3.10;;;;;;;17.54;100.00;100545.03;5310265;27;20088;-65
2023/07/23 09:56:01;;;;;;;4.93;2.85;;;;;;;17.57;100.00;100548.22;5306493;28;20031;-64
2023/07/23 09:58:35;;;;;;;4.70;2.80;;;;;;;17.55;100.00;100552.13;5312659;28;20027;-65
2023/07/23 10:01:07;;;;;;;4.43;2.85;;;;;;;17.48;100.00;100551.13;5314068;27;20034;-65
2023/07/23 10:03:39;;;;;;;4.28;2.90;;;;;;;17.35;100.00;100547.06;5312378;28;20035;-65
2023/07/23 10:06:12;;;;;;;4.45;3.00;;;;;;;17.27;100.00;100552.47;5309595;28;20095;-65
2023/07/23 10:08:44;;;;;;;4.85;2.80;;;;;;;17.27;100.00;100549.75;5306932;27;20070;-65
2023/07/23 10:11:17;;;;;;;4.63;2.83;;;;;;;17.18;100.00;100551.63;5308491;27;20545;-64
2023/07/23 10:13:48;;;;;;;4.20;2.50;;;;;;;17.26;100.00;100556.19;5311034;27;20028;-65
2023/07/23 10:16:24;;;;;;;4.70;2.92;;;;;;;17.27;100.00;100563.25;5312561;28;20078;-65
2023/07/23 10:18:58;;;;;;;3.38;2.53;;;;;;;17.34;100.00;100566.97;5310586;27;20036;-65
2023/07/23 10:21:34;;;;;;;3.33;2.13;;;;;;;17.30;100.00;100565.63;5309291;28;20034;-65
2023/07/23 10:24:06;;;;;;;3.83;2.50;;;;;;;17.32;100.00;100566.28;5315414;28;20425;-65
2023/07/23 10:26:45;;;;;;;4.82;2.65;;;;;;;17.21;100.00;100562.06;5311216;28;20030;-65
2023/07/23 10:29:21;;;;;;;4.15;2.53;;;;;;;17.25;100.00;100563.41;5310193;28;20064;-66
2023/07/23 10:32:22;;;;;;;3.72;2.50;;;;;;;17.32;100.00;100566.28;5306223;28;20046;-65
2023/07/23 10:34:54;;;;;;;4.15;2.50;;;;;;;17.32;100.00;100568.97;5305294;28;20371;-66
2023/07/23 10:37:25;;;;;;;3.90;2.55;;;;;;;17.33;100.00;100567.97;5309796;28;20113;-65
2023/07/23 10:39:59;;;;;;;3.55;2.33;;;;;;;17.31;100.00;100563.75;5309118;28;20051;-65
2023/07/23 10:42:40;;;;;;;3.90;2.60;;;;;;;17.37;100.00;100568.47;5312156;28;20023;-65
2023/07/23 10:45:21;;;;;;;4.25;2.45;;;;;;;17.41;100.00;100572.50;5312800;27;20541;-65
2023/07/23 10:47:57;;;;;;;4.63;2.90;;;;;;;17.38;100.00;100562.06;5310558;28;20067;-65
2023/07/23 10:50:32;;;;;;;4.03;2.75;;;;;;;17.42;100.00;100566.13;5304125;28;20023;-65
2023/07/23 10:53:04;;;;;;;4.40;2.60;;;;;;;17.54;100.00;100570.16;5313559;28;20035;-65
2023/07/23 10:55:47;;;;;;;4.57;2.92;;;;;;;17.58;100.00;100555.28;5308217;27;20759;-65
2023/07/23 10:58:21;;;;;;;5.53;3.15;;;;;;;17.59;100.00;100566.97;5310226;28;20388;-66
2023/07/23 11:00:55;;;;;;;4.70;3.22;;;;;;;17.64;100.00;100562.72;5313857;27;20028;-66
2023/07/23 11:03:26;;;;;;;4.63;3.33;;;;;;;17.67;100.00;100569.63;5313946;28;20618;-66
2023/07/23 11:05:58;;;;;;;4.45;3.38;;;;;;;17.69;100.00;100562.22;5310382;28;20024;-66
2023/07/23 11:08:30;;;;;;;4.28;2.80;;;;;;;17.87;100.00;100555.78;5315275;28;20106;-66
2023/07/23 11:11:09;;;;;;;5.80;3.05;;;;;;;17.92;100.00;100559.66;5308630;28;20020;-66
2023/07/23 11:13:41;;;;;;;4.57;3.30;;;;;;;17.95;100.00;100566.56;5310143;28;20032;-66
2023/07/23 11:16:12;;;;;;;5.63;3.40;;;;;;;18.21;100.00;100567.16;5309852;28;20053;-66
2023/07/23 11:18:46;;;;;;;5.35;3.67;;;;;;;18.31;100.00;100566.13;5314579;27;20058;-66
2023/07/23 11:21:17;;;;;;;4.78;3.38;;;;;;;18.45;100.00;100554.59;5305746;28;20024;-66
2023/07/23 11:23:49;;;;;;;6.07;4.00;;;;;;;18.58;100.00;100559.41;5311776;28;20031;-66
2023/07/23 11:26:21;;;;;;;5.20;3.85;;;;;;;18.60;100.00;100560.94;5306205;28;20020;-66
2023/07/23 11:28:55;;;;;;;5.88;4.10;;;;;;;18.70;100.00;100555.31;5311717;28;20623;-66
2023/07/23 11:31:26;;;;;;;;;;;;;;;18.96;100.00;100560.41;5315856;28;20028;-66
2023/07/23 11:34:00;;;;;;;4.88;4.00;;;;;;;18.99;100.00;100554.63;5311774;28;19938;-66
2023/07/23 11:36:36;;;;;;;5.78;4.05;;;;;;;19.17;100.00;100550.78;5309114;27;20027;-66
2023/07/23 11:39:09;;;;;;;5.80;4.32;;;;;;;19.48;100.00;100542.56;5310327;28;20027;-66
2023/07/23 11:41:41;;;;;;;5.25;3.90;;;;;;;19.55;100.00;100551.66;5309846;28;20101;-66